Map

Track Data

SID SEASON NUMBER BASIN SUBBASIN NAME ISO_TIME NATURE LAT LON WMO_WIND WMO_PRES WMO_AGENCY TRACK_TYPE DIST2LAND LANDFALL IFLAG USA_AGENCY USA_ATCF_ID USA_LAT USA_LON USA_RECORD USA_STATUS USA_WIND USA_PRES USA_SSHS USA_R34_NE USA_R34_SE USA_R34_SW USA_R34_NW USA_R50_NE USA_R50_SE USA_R50_SW USA_R50_NW USA_R64_NE USA_R64_SE USA_R64_SW USA_R64_NW USA_POCI USA_ROCI USA_RMW USA_EYE TOKYO_LAT TOKYO_LON TOKYO_GRADE TOKYO_WIND TOKYO_PRES TOKYO_R50_DIR TOKYO_R50_LONG TOKYO_R50_SHORT TOKYO_R30_DIR TOKYO_R30_LONG TOKYO_R30_SHORT TOKYO_LAND CMA_LAT CMA_LON CMA_CAT CMA_WIND CMA_PRES HKO_LAT HKO_LON HKO_CAT HKO_WIND HKO_PRES NEWDELHI_LAT NEWDELHI_LON NEWDELHI_GRADE NEWDELHI_WIND NEWDELHI_PRES NEWDELHI_CI NEWDELHI_DP NEWDELHI_POCI REUNION_LAT REUNION_LON REUNION_TYPE REUNION_WIND REUNION_PRES REUNION_TNUM REUNION_CI REUNION_RMW REUNION_R34_NE REUNION_R34_SE REUNION_R34_SW REUNION_R34_NW REUNION_R50_NE REUNION_R50_SE REUNION_R50_SW REUNION_R50_NW REUNION_R64_NE REUNION_R64_SE REUNION_R64_SW REUNION_R64_NW BOM_LAT BOM_LON BOM_TYPE BOM_WIND BOM_PRES BOM_TNUM BOM_CI BOM_RMW BOM_R34_NE BOM_R34_SE BOM_R34_SW BOM_R34_NW BOM_R50_NE BOM_R50_SE BOM_R50_SW BOM_R50_NW BOM_R64_NE BOM_R64_SE BOM_R64_SW BOM_R64_NW BOM_ROCI BOM_POCI BOM_EYE BOM_POS_METHOD BOM_PRES_METHOD NADI_LAT NADI_LON NADI_CAT NADI_WIND NADI_PRES WELLINGTON_LAT WELLINGTON_LON WELLINGTON_WIND WELLINGTON_PRES DS824_LAT DS824_LON DS824_STAGE DS824_WIND DS824_PRES TD9636_LAT TD9636_LON TD9636_STAGE TD9636_WIND TD9636_PRES TD9635_LAT TD9635_LON TD9635_WIND TD9635_PRES TD9635_ROCI NEUMANN_LAT NEUMANN_LON NEUMANN_CLASS NEUMANN_WIND NEUMANN_PRES MLC_LAT MLC_LON MLC_CLASS MLC_WIND MLC_PRES USA_GUST BOM_GUST BOM_GUST_PER REUNION_GUST REUNION_GUST_PER USA_SEAHGT USA_SEARAD_NE USA_SEARAD_SE USA_SEARAD_SW USA_SEARAD_NW STORM_SPEED STORM_DIR
1907355S18052 1908 67 SI MM NOT_NAMED 1907-12-21 06:00:00 NR -17.7000 52.0000 reunion spur-split 254 254 _____O________ -1 -17.7000 52.0000 99 9.90000 1 0
1907355S18052 1908 67 SI MM NOT_NAMED 1907-12-21 09:00:00 NR -17.7617 51.9886 spur-split 259 259 _____P________ -1 -17.7617 51.9886 99 1 0
1907355S18052 1908 67 SI MM NOT_NAMED 1907-12-21 12:00:00 NR -17.8282 51.9782 spur-split 259 259 _____P________ -1 -17.8282 51.9782 99 1 0
1907355S18052 1908 67 SI MM NOT_NAMED 1907-12-21 15:00:00 NR -17.9044 51.9701 spur-split 263 263 _____P________ -1 -17.9044 51.9701 99 2 186
1907355S18052 1908 67 SI MM NOT_NAMED 1907-12-21 18:00:00 NR -17.9951 51.9652 spur-split 266 266 _____P________ -1 -17.9951 51.9652 99 2 186
1907355S18052 1908 67 SI MM NOT_NAMED 1907-12-21 21:00:00 NR -18.1052 51.9646 spur-split 268 268 _____P________ -1 -18.1052 51.9646 99 2 0
1907355S18052 1908 67 SI MM NOT_NAMED 1907-12-22 00:00:00 NR -18.2395 51.9695 spur-split 270 270 _____P________ -1 -18.2395 51.9695 99 3 175
1907355S18052 1908 67 SI MM NOT_NAMED 1907-12-22 03:00:00 NR -18.4028 51.9809 spur-split 275 275 _____P________ -1 -18.4028 51.9809 99 4 174
1907355S18052 1908 67 SI MM NOT_NAMED 1907-12-22 06:00:00 NR -18.6000 52.0000 reunion spur-split 277 277 _____O________ -1 -18.6000 52.0000 99 9.90000 4 174
1907355S18052 1908 67 SI MM NOT_NAMED 1907-12-22 09:00:00 NR -18.8339 52.0278 spur-split 282 282 _____P________ -1 -18.8339 52.0278 99 5 173
1907355S18052 1908 67 SI MM NOT_NAMED 1907-12-22 12:00:00 NR -19.0987 52.0647 spur-split 301 301 _____P________ -1 -19.0987 52.0647 99 6 172
1907355S18052 1908 67 SI MM NOT_NAMED 1907-12-22 15:00:00 NR -19.3866 52.1112 spur-split 314 314 _____P________ -1 -19.3866 52.1112 99 6 171
1907355S18052 1908 67 SI MM NOT_NAMED 1907-12-22 18:00:00 NR -19.6899 52.1676 spur-split 334 334 _____P________ -1 -19.6899 52.1676 99 6 169
1907355S18052 1908 67 SI MM NOT_NAMED 1907-12-22 21:00:00 NR -20.0007 52.2343 spur-split 335 314 _____P________ -1 -20.0007 52.2343 99 6 167
1907355S18052 1908 67 SI MM NOT_NAMED 1907-12-23 00:00:00 NR -20.3111 52.3117 spur-split 314 296 _____P________ -1 -20.3111 52.3117 99 6 166
1907355S18052 1908 67 SI MM NOT_NAMED 1907-12-23 03:00:00 NR -20.6135 52.4002 spur-split 296 281 _____P________ -1 -20.6135 52.4002 99 6 163
1907355S18052 1908 67 SI MM NOT_NAMED 1907-12-23 06:00:00 NR -20.9000 52.5000 reunion spur-split 281 269 _____O________ -1 -20.9000 52.5000 99 9.90000 6 162
1907355S18052 1908 67 SI MM NOT_NAMED 1907-12-23 09:00:00 NR -21.1458 52.5871 spur-split 269 260 _____P________ -1 -21.1458 52.5871 99 5 160
1907355S18052 1908 67 SI MM NOT_NAMED 1907-12-23 12:00:00 NR -21.3796 52.6840 spur-split 261 252 _____P________ -1 -21.3796 52.6840 99 5 158
1907355S18052 1908 67 SI MM NOT_NAMED 1907-12-23 15:00:00 NR -21.6027 52.7930 spur-split 254 247 _____P________ -1 -21.6027 52.7930 99 5 154
1907355S18052 1908 67 SI MM NOT_NAMED 1907-12-23 18:00:00 NR -21.8163 52.9164 spur-split 250 244 _____P________ -1 -21.8163 52.9164 99 5 150
1907355S18052 1908 67 SI MM NOT_NAMED 1907-12-23 21:00:00 NR -22.0217 53.0565 spur-split 239 234 _____P________ -1 -22.0217 53.0565 99 5 146
1907355S18052 1908 67 SI MM NOT_NAMED 1907-12-24 00:00:00 NR -22.2199 53.2156 spur-split 239 231 _____P________ -1 -22.2199 53.2156 99 5 141
1907355S18052 1908 67 SI MM NOT_NAMED 1907-12-24 03:00:00 NR -22.4123 53.3960 spur-split 231 227 _____P________ -1 -22.4123 53.3960 99 5 137
1907355S18052 1908 67 SI MM NOT_NAMED 1907-12-24 06:00:00 NR -22.6000 53.6000 reunion spur-split 227 219 _____O________ -1 -22.6000 53.6000 99 9.90000 6 134
1907355S18052 1908 67 SI MM NOT_NAMED 1907-12-24 09:00:00 NR -22.7969 53.8315 spur-split 228 221 _____P________ -1 -22.7969 53.8315 99 6 131
1907355S18052 1908 67 SI MM NOT_NAMED 1907-12-24 12:00:00 NR -22.9884 54.0883 spur-split 226 221 _____P________ -1 -22.9884 54.0883 99 6 127
1907355S18052 1908 67 SI MM NOT_NAMED 1907-12-24 15:00:00 NR -23.1740 54.3658 spur-split 231 227 _____P________ -1 -23.1740 54.3658 99 6 125
1907355S18052 1908 67 SI MM NOT_NAMED 1907-12-24 18:00:00 NR -23.3532 54.6594 spur-split 241 238 _____P________ -1 -23.3532 54.6594 99 7 123
1907355S18052 1908 67 SI MM NOT_NAMED 1907-12-24 21:00:00 NR -23.5258 54.9644 spur-split 242 242 _____P________ -1 -23.5258 54.9644 99 7 121
1907355S18052 1908 67 SI MM NOT_NAMED 1907-12-25 00:00:00 NR -23.6914 55.2760 spur-split 258 257 _____P________ -1 -23.6914 55.2760 99 7 120
1907355S18052 1908 67 SI MM NOT_NAMED 1907-12-25 03:00:00 NR -23.8495 55.5894 spur-split 268 268 _____P________ -1 -23.8495 55.5894 99 6 118
1907355S18052 1908 67 SI MM NOT_NAMED 1907-12-25 06:00:00 NR -24.0000 55.9000 reunion spur-split 292 292 _____O________ -1 -24.0000 55.9000 99 9.90000 6 118
1907355S18052 1908 67 SI MM NOT_NAMED 1907-12-25 09:00:00 NR -24.1571 56.2105 spur-split 318 318 _____P________ -1 -24.1571 56.2105 99 6 118
1907355S18052 1908 67 SI MM NOT_NAMED 1907-12-25 12:00:00 NR -24.3076 56.5236 spur-split 337 337 _____P________ -1 -24.3076 56.5236 99 6 117
1907355S18052 1908 67 SI MM NOT_NAMED 1907-12-25 15:00:00 NR -24.4500 56.8348 spur-split 367 367 _____P________ -1 -24.4500 56.8348 99 6 116
1907355S18052 1908 67 SI MM NOT_NAMED 1907-12-25 18:00:00 NR -24.5832 57.1395 spur-split 389 389 _____P________ -1 -24.5832 57.1395 99 6 115
1907355S18052 1908 67 SI MM NOT_NAMED 1907-12-25 21:00:00 NR -24.7060 57.4331 spur-split 412 412 _____P________ -1 -24.7060 57.4331 99 6 114
1907355S18052 1908 67 SI MM NOT_NAMED 1907-12-26 00:00:00 NR -24.8171 57.7108 spur-split 436 436 _____P________ -1 -24.8171 57.7108 99 5 113
1907355S18052 1908 67 SI MM NOT_NAMED 1907-12-26 03:00:00 NR -24.9155 57.9680 spur-split 460 460 _____P________ -1 -24.9155 57.9680 99 5 112
1907355S18052 1908 67 SI MM NOT_NAMED 1907-12-26 06:00:00 NR -25.0000 58.2000 reunion spur-split 480 480 _____O________ -1 -25.0000 58.2000 99 9.90000 4 111
1907355S18052 1908 67 SI MM NOT_NAMED 1907-12-26 09:00:00 NR -25.0700 58.4034 spur-split 500 500 _____P________ -1 -25.0700 58.4034 99 4 110
1907355S18052 1908 67 SI MM NOT_NAMED 1907-12-26 12:00:00 NR -25.1269 58.5805 spur-split 512 512 _____P________ -1 -25.1269 58.5805 99 3 109
1907355S18052 1908 67 SI MM NOT_NAMED 1907-12-26 15:00:00 NR -25.1727 58.7350 spur-split 526 526 _____P________ -1 -25.1727 58.7350 99 3 107
1907355S18052 1908 67 SI MM NOT_NAMED 1907-12-26 18:00:00 NR -25.2092 58.8707 spur-split 538 538 _____P________ -1 -25.2092 58.8707 99 2 106
1907355S18052 1908 67 SI MM NOT_NAMED 1907-12-26 21:00:00 NR -25.2384 58.9912 spur-split 541 541 _____P________ -1 -25.2384 58.9912 99 2 104
1907355S18052 1908 67 SI MM NOT_NAMED 1907-12-27 00:00:00 NR -25.2620 59.1004 spur-split 555 555 _____P________ -1 -25.2620 59.1004 99 2 103
1907355S18052 1908 67 SI MM NOT_NAMED 1907-12-27 03:00:00 NR -25.2819 59.2021 spur-split 558 558 _____P________ -1 -25.2819 59.2021 99 2 102
1907355S18052 1908 67 SI MM NOT_NAMED 1907-12-27 06:00:00 NR -25.3000 59.3000 reunion spur-split 560 _____O________ -1 -25.3000 59.3000 99 9.90000 2 102

About IBTrACS Database

This database is a web-friendly format of International Best Track Archive for Climate Stewardship (IBTrACS), a global best track data archive curated by NOAA dating back to 1842.

Updated: 2021-10-21